Time,TemperatureF,DewpointF,PressureIn,WindDirection,WindDirectionDegrees,WindSpeedMPH,WindSpeedGustMPH,Humidity,HourlyPrecipIn,Conditions,Clouds,dailyrainin,SolarRadiationWatts/m^2,SoftwareType,DateUTC
2013-06-15 00:01:00,60.6,57.7,29.80,North,9,8.0,8.0,90,0.00,,CLR,0.00,0.00,VWS V14.01,2013-06-15 04:01:00,
2013-06-15 00:05:00,60.7,57.8,29.80,NNW,327,4.0,12.0,90,0.00,,CLR,0.00,0.00,VWS V14.01,2013-06-15 04:05:00,
2013-06-15 00:10:00,60.6,57.7,29.80,NNW,340,4.0,12.0,90,0.00,,CLR,0.00,0.00,VWS V14.01,2013-06-15 04:10:00,
2013-06-15 00:15:00,60.6,58.0,29.80,NNW,348,5.0,11.0,91,0.00,,CLR,0.00,0.00,VWS V14.01,2013-06-15 04:15:00,
2013-06-15 00:20:00,60.4,57.8,29.80,NNW,342,5.0,13.0,91,0.00,,CLR,0.00,0.00,VWS V14.01,2013-06-15 04:20:00,
2013-06-15 00:25:00,60.4,57.8,29.80,North,349,3.0,10.0,91,0.00,,CLR,0.00,0.00,VWS V14.01,2013-06-15 04:25:00,
2013-06-15 00:30:00,60.3,57.7,29.80,North,355,5.0,8.0,91,0.00,,CLR,0.00,0.00,VWS V14.01,2013-06-15 04:30:00,
2013-06-15 00:35:00,60.4,57.8,29.80,NNW,337,0.0,9.0,91,0.00,,CLR,0.00,0.00,VWS V14.01,2013-06-15 04:35:00,
2013-06-15 00:40:00,60.2,57.6,29.80,North,360,2.0,10.0,91,0.00,,CLR,0.00,0.00,VWS V14.01,2013-06-15 04:40:00,
2013-06-15 00:45:00,60.3,57.7,29.81,NNW,346,6.0,12.0,91,0.00,,CLR,0.00,0.00,VWS V14.01,2013-06-15 04:45:00,
2013-06-15 00:50:00,60.2,57.6,29.81,North,10,5.0,10.0,91,0.00,,CLR,0.00,0.00,VWS V14.01,2013-06-15 04:50:00,
2013-06-15 00:55:00,60.2,57.6,29.80,NNW,329,10.0,10.0,91,0.00,,CLR,0.00,0.00,VWS V14.01,2013-06-15 04:55:00,
2013-06-15 01:00:00,60.1,57.5,29.81,NNE,26,4.0,9.0,91,0.00,,CLR,0.00,0.00,VWS V14.01,2013-06-15 05:00:00,
2013-06-15 01:05:00,60.0,57.4,29.80,North,355,1.0,13.0,91,0.00,,CLR,0.00,0.00,VWS V14.01,2013-06-15 05:05:00,
2013-06-15 01:10:00,59.9,57.3,29.80,NNW,348,0.0,12.0,91,0.00,,CLR,0.00,0.00,VWS V14.01,2013-06-15 05:10:00,
2013-06-15 01:15:00,59.8,57.2,29.80,North,355,0.0,10.0,91,0.00,,CLR,0.00,0.00,VWS V14.01,2013-06-15 05:15:00,
2013-06-15 01:20:00,59.6,57.0,29.80,NNW,346,6.0,11.0,91,0.00,,CLR,0.00,0.00,VWS V14.01,2013-06-15 05:20:00,
2013-06-15 01:25:00,59.5,57.2,29.80,NNW,343,2.0,11.0,92,0.00,,CLR,0.00,0.00,VWS V14.01,2013-06-15 05:25:00,
2013-06-15 01:30:00,59.3,57.0,29.81,North,360,0.0,10.0,92,0.00,,CLR,0.00,0.00,VWS V14.01,2013-06-15 05:30:00,
2013-06-15 01:35:00,59.3,57.0,29.80,North,350,5.0,11.0,92,0.00,,CLR,0.00,0.00,VWS V14.01,2013-06-15 05:35:00,
2013-06-15 01:40:00,59.3,57.0,29.80,NNW,333,6.0,11.0,92,0.00,,CLR,0.00,0.00,VWS V14.01,2013-06-15 05:40:00,
2013-06-15 01:45:00,59.1,56.8,29.81,NNW,343,6.0,10.0,92,0.00,,CLR,0.00,0.00,VWS V14.01,2013-06-15 05:45:00,
2013-06-15 01:50:00,59.1,56.8,29.81,NNW,331,10.0,10.0,92,0.00,,CLR,0.00,0.00,VWS V14.01,2013-06-15 05:50:00,
2013-06-15 01:55:00,59.0,56.7,29.81,North,355,2.0,9.0,92,0.00,,CLR,0.00,0.00,VWS V14.01,2013-06-15 05:55:00,
2013-06-15 02:00:00,59.1,57.1,29.81,NW,324,10.0,11.0,93,0.00,,CLR,0.00,0.00,VWS V14.01,2013-06-15 06:00:00,
2013-06-15 02:05:00,59.1,56.8,29.81,NNW,341,6.0,10.0,92,0.00,,CLR,0.00,0.00,VWS V14.01,2013-06-15 06:05:00,
2013-06-15 02:10:00,59.1,56.8,29.81,North,350,5.0,11.0,92,0.00,,CLR,0.00,0.00,VWS V14.01,2013-06-15 06:10:00,
2013-06-15 02:15:00,59.2,56.9,29.81,NNW,332,9.0,11.0,92,0.00,,CLR,0.00,0.00,VWS V14.01,2013-06-15 06:15:00,
2013-06-15 02:20:00,59.3,57.0,29.81,NNW,335,6.0,10.0,92,0.00,,CLR,0.00,0.00,VWS V14.01,2013-06-15 06:20:00,
2013-06-15 02:25:00,59.4,57.1,29.81,North,355,2.0,10.0,92,0.00,,CLR,0.00,0.00,VWS V14.01,2013-06-15 06:25:00,
2013-06-15 02:30:00,59.5,56.9,29.81,NNW,342,3.0,11.0,91,0.00,,CLR,0.00,0.00,VWS V14.01,2013-06-15 06:30:00,
2013-06-15 02:35:00,59.6,57.0,29.81,NNW,347,8.0,13.0,91,0.00,,CLR,0.00,0.00,VWS V14.01,2013-06-15 06:35:00,
2013-06-15 02:40:00,59.8,56.9,29.81,NNW,346,6.0,10.0,90,0.00,,CLR,0.00,0.00,VWS V14.01,2013-06-15 06:40:00,
2013-06-15 02:45:00,59.9,57.0,29.81,North,355,1.0,10.0,90,0.00,,CLR,0.00,0.00,VWS V14.01,2013-06-15 06:45:00,
2013-06-15 02:50:00,60.0,57.1,29.82,North,355,3.0,9.0,90,0.00,,CLR,0.00,0.00,VWS V14.01,2013-06-15 06:50:00,
2013-06-15 02:55:00,60.0,56.8,29.82,NNW,339,3.0,9.0,89,0.00,,CLR,0.00,0.00,VWS V14.01,2013-06-15 06:55:00,
2013-06-15 03:00:00,60.1,56.8,29.82,NNW,341,3.0,9.0,89,0.00,,CLR,0.00,0.00,VWS V14.01,2013-06-15 07:00:00,
2013-06-15 03:05:00,60.0,57.1,29.83,North,355,0.0,8.0,90,0.00,,CLR,0.00,0.00,VWS V14.01,2013-06-15 07:05:00,
2013-06-15 03:10:00,60.0,57.1,29.83,NNW,331,8.0,11.0,90,0.00,,CLR,0.00,0.00,VWS V14.01,2013-06-15 07:10:00,
2013-06-15 03:15:00,60.0,57.1,29.83,NNW,348,1.0,11.0,90,0.00,,CLR,0.00,0.00,VWS V14.01,2013-06-15 07:15:00,
2013-06-15 03:20:00,60.0,57.1,29.83,NNW,338,5.0,9.0,90,0.00,,CLR,0.00,0.00,VWS V14.01,2013-06-15 07:20:00,
2013-06-15 03:25:00,59.8,56.9,29.83,NNW,348,0.0,6.0,90,0.00,,CLR,0.00,0.00,VWS V14.01,2013-06-15 07:25:00,
2013-06-15 03:30:00,59.8,56.9,29.83,North,5,5.0,12.0,90,0.00,,CLR,0.00,0.00,VWS V14.01,2013-06-15 07:30:00,
2013-06-15 03:35:00,59.9,57.0,29.83,NNW,345,4.0,11.0,90,0.00,,CLR,0.00,0.00,VWS V14.01,2013-06-15 07:35:00,
2013-06-15 03:40:00,59.9,57.0,29.83,North,350,5.0,11.0,90,0.00,,CLR,0.00,0.00,VWS V14.01,2013-06-15 07:40:00,
2013-06-15 03:45:00,59.9,57.0,29.83,NNE,17,2.0,14.0,90,0.00,,CLR,0.00,0.00,VWS V14.01,2013-06-15 07:45:00,
2013-06-15 03:50:00,59.8,56.9,29.83,NNW,346,6.0,13.0,90,0.00,,CLR,0.00,0.00,VWS V14.01,2013-06-15 07:50:00,
2013-06-15 03:55:00,59.9,57.0,29.83,NNW,341,6.0,12.0,90,0.00,,CLR,0.00,0.00,VWS V14.01,2013-06-15 07:55:00,
2013-06-15 04:00:00,59.8,56.9,29.83,NNW,345,6.0,11.0,90,0.00,,CLR,0.00,0.00,VWS V14.01,2013-06-15 08:00:00,
2013-06-15 04:05:00,59.7,56.8,29.83,North,360,4.0,10.0,90,0.00,,CLR,0.00,0.00,VWS V14.01,2013-06-15 08:05:00,
2013-06-15 04:10:00,59.7,56.8,29.83,North,360,6.0,10.0,90,0.00,,CLR,0.00,0.00,VWS V14.01,2013-06-15 08:10:00,
2013-06-15 04:15:00,59.7,56.8,29.83,NNW,348,0.0,9.0,90,0.00,,CLR,0.00,0.00,VWS V14.01,2013-06-15 08:15:00,
2013-06-15 04:20:00,59.6,56.7,29.83,North,9,5.0,8.0,90,0.00,,CLR,0.00,0.00,VWS V14.01,2013-06-15 08:20:00,
2013-06-15 04:25:00,59.5,56.6,29.84,NNW,334,5.0,8.0,90,0.00,,CLR,0.00,0.00,VWS V14.01,2013-06-15 08:25:00,
2013-06-15 04:30:00,59.5,56.6,29.84,North,355,6.0,6.0,90,0.00,,CLR,0.00,0.00,VWS V14.01,2013-06-15 08:30:00,
2013-06-15 04:35:00,59.5,56.6,29.84,NNW,348,5.0,12.0,90,0.00,,CLR,0.00,0.00,VWS V14.01,2013-06-15 08:35:00,
2013-06-15 04:40:00,59.4,56.5,29.84,NNW,345,6.0,8.0,90,0.00,,CLR,0.00,0.00,VWS V14.01,2013-06-15 08:40:00,
2013-06-15 04:45:00,59.5,56.6,29.84,NNW,336,8.0,10.0,90,0.00,,CLR,0.00,0.00,VWS V14.01,2013-06-15 08:45:00,
2013-06-15 04:50:00,59.5,56.6,29.84,North,355,3.0,11.0,90,0.00,,CLR,0.00,0.00,VWS V14.01,2013-06-15 08:50:00,
2013-06-15 04:55:00,59.4,56.5,29.84,NNE,17,4.0,11.0,90,0.00,,CLR,0.00,0.00,VWS V14.01,2013-06-15 08:55:00,
2013-06-15 05:00:00,59.3,56.4,29.84,North,350,8.0,11.0,90,0.00,,CLR,0.00,0.00,VWS V14.01,2013-06-15 09:00:00,
2013-06-15 05:05:00,59.1,56.2,29.85,NNW,342,5.0,11.0,90,0.00,,CLR,0.00,0.00,VWS V14.01,2013-06-15 09:05:00,
2013-06-15 05:10:00,59.1,56.5,29.85,North,355,6.0,10.0,91,0.00,,CLR,0.00,0.00,VWS V14.01,2013-06-15 09:10:00,
2013-06-15 05:15:00,59.2,56.3,29.85,North,349,6.0,9.0,90,0.00,,CLR,0.00,0.00,VWS V14.01,2013-06-15 09:15:00,
2013-06-15 05:20:00,59.3,56.4,29.85,NNW,339,4.0,10.0,90,0.00,,CLR,0.00,7.00,VWS V14.01,2013-06-15 09:20:00,
2013-06-15 05:25:00,59.2,56.3,29.85,NNW,342,5.0,10.0,90,0.00,,CLR,0.00,9.00,VWS V14.01,2013-06-15 09:25:00,
2013-06-15 05:29:00,59.1,56.2,29.85,NNW,342,9.0,11.0,90,0.00,,CLR,0.00,12.00,VWS V14.01,2013-06-15 09:29:00,
2013-06-15 05:34:00,59.1,56.2,29.85,North,355,6.0,10.0,90,0.00,,CLR,0.00,16.00,VWS V14.01,2013-06-15 09:34:00,
2013-06-15 05:39:00,59.2,56.3,29.86,NNW,334,8.0,11.0,90,0.00,,CLR,0.00,18.00,VWS V14.01,2013-06-15 09:39:00,
2013-06-15 05:44:00,59.1,56.2,29.85,NNW,348,6.0,9.0,90,0.00,,CLR,0.00,21.00,VWS V14.01,2013-06-15 09:44:00,
2013-06-15 05:49:00,58.9,56.3,29.86,NNW,338,0.0,8.0,91,0.00,,CLR,0.00,25.00,VWS V14.01,2013-06-15 09:49:00,
2013-06-15 05:54:00,58.8,56.2,29.86,NNW,344,8.0,8.0,91,0.00,,CLR,0.00,28.00,VWS V14.01,2013-06-15 09:54:00,
2013-06-15 05:59:00,59.0,56.4,29.87,NNW,342,6.0,8.0,91,0.00,,CLR,0.00,33.00,VWS V14.01,2013-06-15 09:59:00,
2013-06-15 06:04:00,59.3,56.7,29.87,North,355,9.0,11.0,91,0.00,,CLR,0.00,42.00,VWS V14.01,2013-06-15 10:04:00,
2013-06-15 06:09:00,59.7,56.5,29.87,NNW,334,11.0,11.0,89,0.00,,CLR,0.00,51.00,VWS V14.01,2013-06-15 10:09:00,
2013-06-15 06:14:00,60.1,56.5,29.87,North,355,3.0,12.0,88,0.00,,CLR,0.00,62.00,VWS V14.01,2013-06-15 10:14:00,
2013-06-15 06:19:00,60.4,56.8,29.87,NNW,343,6.0,10.0,88,0.00,,CLR,0.00,76.00,VWS V14.01,2013-06-15 10:19:00,
2013-06-15 06:24:00,60.8,56.9,29.86,North,351,5.0,10.0,87,0.00,,CLR,0.00,86.00,VWS V14.01,2013-06-15 10:24:00,
2013-06-15 06:29:00,60.9,56.7,29.86,North,355,5.0,10.0,86,0.00,,CLR,0.00,104.00,VWS V14.01,2013-06-15 10:29:00,
2013-06-15 06:34:00,61.0,57.1,29.86,North,355,6.0,10.0,87,0.00,,CLR,0.00,120.00,VWS V14.01,2013-06-15 10:34:00,
2013-06-15 06:39:00,61.0,57.1,29.86,North,355,6.0,10.0,87,0.00,,CLR,0.00,134.00,VWS V14.01,2013-06-15 10:39:00,
2013-06-15 06:44:00,61.1,57.2,29.86,NNW,339,4.0,11.0,87,0.00,,CLR,0.00,151.00,VWS V14.01,2013-06-15 10:44:00,
2013-06-15 06:49:00,61.3,57.1,29.87,NNW,348,4.0,10.0,86,0.00,,CLR,0.00,171.00,VWS V14.01,2013-06-15 10:49:00,
2013-06-15 06:54:00,61.6,57.4,29.87,NNW,342,4.0,10.0,86,0.00,,CLR,0.00,188.00,VWS V14.01,2013-06-15 10:54:00,
2013-06-15 06:59:00,61.8,57.2,29.87,North,360,5.0,10.0,85,0.00,,CLR,0.00,206.00,VWS V14.01,2013-06-15 10:59:00,
2013-06-15 07:04:00,62.0,57.5,29.87,NNW,346,9.0,11.0,85,0.00,,CLR,0.00,223.00,VWS V14.01,2013-06-15 11:04:00,
2013-06-15 07:09:00,62.0,57.5,29.88,NNW,336,8.0,13.0,85,0.00,,CLR,0.00,236.00,VWS V14.01,2013-06-15 11:09:00,
2013-06-15 07:14:00,62.1,57.5,29.88,NNW,342,5.0,11.0,85,0.00,,CLR,0.00,251.00,VWS V14.01,2013-06-15 11:14:00,
2013-06-15 07:19:00,62.3,57.4,29.88,NNE,13,2.0,12.0,84,0.00,,CLR,0.00,269.00,VWS V14.01,2013-06-15 11:19:00,
2013-06-15 07:24:00,62.4,57.5,29.88,North,5,2.0,12.0,84,0.00,,CLR,0.00,285.00,VWS V14.01,2013-06-15 11:24:00,
2013-06-15 07:29:00,62.7,57.1,29.89,NNW,341,5.0,13.0,82,0.00,,CLR,0.00,302.00,VWS V14.01,2013-06-15 11:29:00,
2013-06-15 07:34:00,63.0,57.4,29.89,NW,313,8.0,12.0,82,0.00,,CLR,0.00,320.00,VWS V14.01,2013-06-15 11:34:00,
2013-06-15 07:39:00,63.3,57.4,29.89,NW,317,9.0,14.0,81,0.00,,CLR,0.00,332.00,VWS V14.01,2013-06-15 11:39:00,
2013-06-15 07:44:00,63.4,57.1,29.89,North,355,6.0,10.0,80,0.00,,CLR,0.00,346.00,VWS V14.01,2013-06-15 11:44:00,
2013-06-15 07:49:00,63.5,57.6,29.89,NNW,342,6.0,10.0,81,0.00,,CLR,0.00,366.00,VWS V14.01,2013-06-15 11:49:00,
2013-06-15 07:54:00,63.8,57.9,29.89,NNW,337,8.0,10.0,81,0.00,,CLR,0.00,383.00,VWS V14.01,2013-06-15 11:54:00,
2013-06-15 07:59:00,64.1,58.2,29.90,NW,310,8.0,8.0,81,0.00,,CLR,0.00,399.00,VWS V14.01,2013-06-15 11:59:00,
2013-06-15 08:04:00,64.0,57.7,29.90,NNW,342,5.0,12.0,80,0.00,,CLR,0.00,413.00,VWS V14.01,2013-06-15 12:04:00,
2013-06-15 08:09:00,64.1,58.2,29.90,North,360,2.0,11.0,81,0.00,,CLR,0.00,432.00,VWS V14.01,2013-06-15 12:09:00,
2013-06-15 08:14:00,64.4,58.1,29.90,North,350,8.0,10.0,80,0.00,,CLR,0.00,448.00,VWS V14.01,2013-06-15 12:14:00,
2013-06-15 08:19:00,64.2,57.9,29.90,NNW,334,8.0,11.0,80,0.00,,CLR,0.00,464.00,VWS V14.01,2013-06-15 12:19:00,
2013-06-15 08:24:00,64.0,57.7,29.90,North,5,5.0,13.0,80,0.00,,CLR,0.00,480.00,VWS V14.01,2013-06-15 12:24:00,
2013-06-15 08:29:00,64.5,58.5,29.90,North,360,2.0,9.0,81,0.00,,CLR,0.00,496.00,VWS V14.01,2013-06-15 12:29:00,
2013-06-15 08:34:00,65.1,58.4,29.91,North,9,7.0,9.0,79,0.00,,CLR,0.00,512.00,VWS V14.01,2013-06-15 12:34:00,
2013-06-15 08:39:00,65.1,58.1,29.91,North,9,8.0,11.0,78,0.00,,CLR,0.00,527.00,VWS V14.01,2013-06-15 12:39:00,
2013-06-15 08:44:00,65.0,58.0,29.91,NNW,333,10.0,12.0,78,0.00,,CLR,0.00,545.00,VWS V14.01,2013-06-15 12:44:00,
2013-06-15 08:49:00,65.2,58.2,29.91,NNW,344,11.0,13.0,78,0.00,,CLR,0.00,559.00,VWS V14.01,2013-06-15 12:49:00,
2013-06-15 08:54:00,65.4,58.0,29.92,North,360,6.0,12.0,77,0.00,,CLR,0.00,577.00,VWS V14.01,2013-06-15 12:54:00,
2013-06-15 08:59:00,65.8,58.0,29.92,North,360,0.0,11.0,76,0.00,,CLR,0.00,592.00,VWS V14.01,2013-06-15 12:59:00,
2013-06-15 09:04:00,66.3,58.5,29.92,NNW,346,0.0,9.0,76,0.00,,CLR,0.00,606.00,VWS V14.01,2013-06-15 13:04:00,
2013-06-15 09:09:00,67.4,59.2,29.92,NNE,14,9.0,9.0,75,0.00,,CLR,0.00,624.00,VWS V14.01,2013-06-15 13:09:00,
2013-06-15 09:14:00,67.0,58.1,29.92,North,360,6.0,10.0,73,0.00,,CLR,0.00,636.00,VWS V14.01,2013-06-15 13:14:00,
2013-06-15 09:19:00,67.0,58.8,29.93,North,5,1.0,9.0,75,0.00,,CLR,0.00,647.00,VWS V14.01,2013-06-15 13:19:00,
2013-06-15 09:24:00,67.0,58.5,29.93,North,5,8.0,11.0,74,0.00,,CLR,0.00,668.00,VWS V14.01,2013-06-15 13:24:00,
2013-06-15 09:29:00,67.1,58.2,29.93,NNE,13,4.0,11.0,73,0.00,,CLR,0.00,684.00,VWS V14.01,2013-06-15 13:29:00,
2013-06-15 09:34:00,67.6,57.9,29.93,North,355,5.0,10.0,71,0.00,,CLR,0.00,698.00,VWS V14.01,2013-06-15 13:34:00,
2013-06-15 09:39:00,68.4,59.0,29.93,NNW,340,1.0,9.0,72,0.00,,CLR,0.00,712.00,VWS V14.01,2013-06-15 13:39:00,
2013-06-15 09:44:00,69.0,58.4,29.93,NNW,344,5.0,12.0,69,0.00,,CLR,0.00,724.00,VWS V14.01,2013-06-15 13:44:00,
2013-06-15 09:49:00,68.5,58.7,29.93,NNW,348,8.0,12.0,71,0.00,,CLR,0.00,738.00,VWS V14.01,2013-06-15 13:49:00,
2013-06-15 09:54:00,68.2,58.5,29.93,NNW,330,13.0,13.0,71,0.00,,CLR,0.00,752.00,VWS V14.01,2013-06-15 13:54:00,
2013-06-15 09:59:00,68.2,58.5,29.93,NNW,338,4.0,12.0,71,0.00,,CLR,0.00,766.00,VWS V14.01,2013-06-15 13:59:00,
2013-06-15 10:04:00,68.2,58.0,29.93,NW,320,5.0,12.0,70,0.00,,CLR,0.00,779.00,VWS V14.01,2013-06-15 14:04:00,
2013-06-15 10:09:00,68.5,58.7,29.93,NNW,341,6.0,12.0,71,0.00,,CLR,0.00,791.00,VWS V14.01,2013-06-15 14:09:00,
2013-06-15 10:14:00,68.6,58.8,29.93,North,349,6.0,12.0,71,0.00,,CLR,0.00,798.00,VWS V14.01,2013-06-15 14:14:00,
2013-06-15 10:19:00,68.8,59.0,29.93,NNW,344,12.0,12.0,71,0.00,,CLR,0.00,814.00,VWS V14.01,2013-06-15 14:19:00,
2013-06-15 10:24:00,68.3,58.2,29.94,North,5,4.0,15.0,70,0.00,,CLR,0.00,824.00,VWS V14.01,2013-06-15 14:24:00,
2013-06-15 10:29:00,67.9,57.8,29.93,NNW,340,9.0,16.0,70,0.00,,CLR,0.00,833.00,VWS V14.01,2013-06-15 14:29:00,
2013-06-15 10:34:00,68.5,58.7,29.93,NNW,336,8.0,9.0,71,0.00,,CLR,0.00,847.00,VWS V14.01,2013-06-15 14:34:00,
2013-06-15 10:39:00,69.4,58.0,29.93,NNW,348,12.0,12.0,67,0.00,,CLR,0.00,858.00,VWS V14.01,2013-06-15 14:39:00,
2013-06-15 10:44:00,69.6,59.0,29.93,NNE,24,2.0,13.0,69,0.00,,CLR,0.00,865.00,VWS V14.01,2013-06-15 14:44:00,
2013-06-15 10:49:00,69.7,58.3,29.93,North,351,5.0,10.0,67,0.00,,CLR,0.00,877.00,VWS V14.01,2013-06-15 14:49:00,
2013-06-15 10:54:00,69.4,57.6,29.93,NNW,337,9.0,12.0,66,0.00,,CLR,0.00,889.00,VWS V14.01,2013-06-15 14:54:00,
2013-06-15 10:59:00,69.6,57.3,29.93,NNW,344,11.0,13.0,65,0.00,,CLR,0.00,895.00,VWS V14.01,2013-06-15 14:59:00,
2013-06-15 11:04:00,69.7,57.8,29.93,North,5,9.0,13.0,66,0.00,,CLR,0.00,905.00,VWS V14.01,2013-06-15 15:04:00,
2013-06-15 11:09:00,70.7,58.8,29.93,NNW,342,8.0,12.0,66,0.00,,CLR,0.00,916.00,VWS V14.01,2013-06-15 15:09:00,
2013-06-15 11:14:00,70.3,58.4,29.92,NNW,333,2.0,11.0,66,0.00,,CLR,0.00,923.00,VWS V14.01,2013-06-15 15:14:00,
2013-06-15 11:19:00,70.9,59.0,29.92,North,349,0.0,6.0,66,0.00,,CLR,0.00,930.00,VWS V14.01,2013-06-15 15:19:00,
2013-06-15 11:24:00,71.4,58.6,29.92,North,360,3.0,11.0,64,0.00,,CLR,0.00,940.00,VWS V14.01,2013-06-15 15:24:00,
2013-06-15 11:29:00,71.3,58.5,29.92,WNW,300,0.0,11.0,64,0.00,,CLR,0.00,944.00,VWS V14.01,2013-06-15 15:29:00,
2013-06-15 11:34:00,72.0,59.6,29.93,North,351,4.0,7.0,65,0.00,,CLR,0.00,951.00,VWS V14.01,2013-06-15 15:34:00,
2013-06-15 11:39:00,72.0,60.0,29.93,NNW,336,0.0,9.0,66,0.00,,CLR,0.00,958.00,VWS V14.01,2013-06-15 15:39:00,
2013-06-15 11:44:00,72.6,59.3,29.92,West,273,0.0,9.0,63,0.00,,CLR,0.00,967.00,VWS V14.01,2013-06-15 15:44:00,
2013-06-15 11:49:00,72.2,58.5,29.92,NNW,340,4.0,10.0,62,0.00,,CLR,0.00,970.00,VWS V14.01,2013-06-15 15:49:00,
2013-06-15 11:54:00,72.5,59.6,29.93,NNW,338,4.0,10.0,64,0.00,,CLR,0.00,974.00,VWS V14.01,2013-06-15 15:54:00,
2013-06-15 11:59:00,72.7,58.9,29.93,NNW,336,2.0,9.0,62,0.00,,CLR,0.00,979.00,VWS V14.01,2013-06-15 15:59:00,
2013-06-15 12:03:00,73.0,59.2,29.93,NNW,343,6.0,10.0,62,0.00,,CLR,0.00,981.00,VWS V14.01,2013-06-15 16:03:00,
2013-06-15 12:08:00,73.6,59.8,29.93,NNW,344,0.0,7.0,62,0.00,,CLR,0.00,983.00,VWS V14.01,2013-06-15 16:08:00,
2013-06-15 12:13:00,74.0,59.2,29.93,NNW,337,2.0,4.0,60,0.00,,CLR,0.00,986.00,VWS V14.01,2013-06-15 16:13:00,
2013-06-15 12:18:00,73.7,58.0,29.93,North,360,8.0,13.0,58,0.00,,CLR,0.00,988.00,VWS V14.01,2013-06-15 16:18:00,
2013-06-15 12:23:00,73.3,58.6,29.93,NW,304,12.0,12.0,60,0.00,,CLR,0.00,993.00,VWS V14.01,2013-06-15 16:23:00,
2013-06-15 12:28:00,72.9,58.7,29.93,WNW,292,7.0,11.0,61,0.00,,CLR,0.00,997.00,VWS V14.01,2013-06-15 16:28:00,
2013-06-15 12:33:00,72.8,58.6,29.93,WNW,292,10.0,10.0,61,0.00,,CLR,0.00,998.00,VWS V14.01,2013-06-15 16:33:00,
2013-06-15 12:38:00,72.9,58.7,29.93,North,355,4.0,12.0,61,0.00,,CLR,0.00,998.00,VWS V14.01,2013-06-15 16:38:00,
2013-06-15 12:43:00,73.0,58.3,29.93,NW,313,8.0,11.0,60,0.00,,CLR,0.00,990.00,VWS V14.01,2013-06-15 16:43:00,
2013-06-15 12:48:00,72.9,58.2,29.93,NW,304,2.0,13.0,60,0.00,,CLR,0.00,993.00,VWS V14.01,2013-06-15 16:48:00,
2013-06-15 12:53:00,72.9,58.2,29.93,NNW,331,6.0,9.0,60,0.00,,CLR,0.00,990.00,VWS V14.01,2013-06-15 16:53:00,
2013-06-15 12:58:00,72.9,57.3,29.93,NNW,348,2.0,12.0,58,0.00,,CLR,0.00,984.00,VWS V14.01,2013-06-15 16:58:00,
2013-06-15 13:03:00,73.1,57.9,29.93,NNW,346,1.0,9.0,59,0.00,,CLR,0.00,991.00,VWS V14.01,2013-06-15 17:03:00,
2013-06-15 13:08:00,73.8,57.6,29.93,NW,314,0.0,13.0,57,0.00,,CLR,0.00,993.00,VWS V14.01,2013-06-15 17:08:00,
2013-06-15 13:13:00,74.0,57.3,29.93,NW,310,4.0,7.0,56,0.00,,CLR,0.00,997.00,VWS V14.01,2013-06-15 17:13:00,
2013-06-15 13:18:00,73.8,57.1,29.92,NW,310,3.0,11.0,56,0.00,,CLR,0.00,991.00,VWS V14.01,2013-06-15 17:18:00,
2013-06-15 13:23:00,73.8,56.6,29.92,NW,310,3.0,9.0,55,0.00,,CLR,0.00,993.00,VWS V14.01,2013-06-15 17:23:00,
2013-06-15 13:28:00,74.0,56.8,29.92,NW,310,7.0,8.0,55,0.00,,CLR,0.00,997.00,VWS V14.01,2013-06-15 17:28:00,
2013-06-15 13:33:00,74.0,56.8,29.92,WNW,302,11.0,12.0,55,0.00,,CLR,0.00,990.00,VWS V14.01,2013-06-15 17:33:00,
2013-06-15 13:38:00,74.3,56.6,29.92,NNW,348,2.0,12.0,54,0.00,,CLR,0.00,983.00,VWS V14.01,2013-06-15 17:38:00,
2013-06-15 13:43:00,74.5,56.8,29.92,North,350,0.0,8.0,54,0.00,,CLR,0.00,981.00,VWS V14.01,2013-06-15 17:43:00,
2013-06-15 13:48:00,74.9,56.1,29.92,NNW,334,3.0,13.0,52,0.00,,CLR,0.00,977.00,VWS V14.01,2013-06-15 17:48:00,
2013-06-15 13:53:00,74.6,55.8,29.92,NNW,334,2.0,10.0,52,0.00,,CLR,0.00,974.00,VWS V14.01,2013-06-15 17:53:00,
2013-06-15 13:58:00,74.6,56.4,29.91,NW,311,0.0,11.0,53,0.00,,CLR,0.00,974.00,VWS V14.01,2013-06-15 17:58:00,
2013-06-15 14:03:00,74.5,56.3,29.91,NNW,327,3.0,11.0,53,0.00,,CLR,0.00,974.00,VWS V14.01,2013-06-15 18:03:00,
2013-06-15 14:08:00,75.3,57.0,29.91,North,5,6.0,12.0,53,0.00,,CLR,0.00,967.00,VWS V14.01,2013-06-15 18:08:00,
2013-06-15 14:13:00,74.7,55.4,29.91,NNW,342,1.0,14.0,51,0.00,,CLR,0.00,960.00,VWS V14.01,2013-06-15 18:13:00,
2013-06-15 14:18:00,75.2,55.8,29.91,NNW,344,0.0,8.0,51,0.00,,CLR,0.00,949.00,VWS V14.01,2013-06-15 18:18:00,
2013-06-15 14:23:00,75.4,56.0,29.91,NNW,331,2.0,12.0,51,0.00,,CLR,0.00,951.00,VWS V14.01,2013-06-15 18:23:00,
2013-06-15 14:28:00,75.7,55.8,29.91,NW,315,6.0,12.0,50,0.00,,CLR,0.00,940.00,VWS V14.01,2013-06-15 18:28:00,
2013-06-15 14:33:00,75.4,55.5,29.90,WNW,287,4.0,11.0,50,0.00,,CLR,0.00,932.00,VWS V14.01,2013-06-15 18:33:00,
2013-06-15 14:38:00,75.5,55.6,29.91,NNW,341,4.0,15.0,50,0.00,,CLR,0.00,923.00,VWS V14.01,2013-06-15 18:38:00,
2013-06-15 14:43:00,75.3,53.7,29.91,North,355,4.0,15.0,47,0.00,,CLR,0.00,911.00,VWS V14.01,2013-06-15 18:43:00,
2013-06-15 14:48:00,75.6,54.5,29.90,NW,319,12.0,12.0,48,0.00,,CLR,0.00,909.00,VWS V14.01,2013-06-15 18:48:00,
2013-06-15 14:53:00,75.8,55.9,29.90,NW,326,9.0,9.0,50,0.00,,CLR,0.00,900.00,VWS V14.01,2013-06-15 18:53:00,
2013-06-15 14:58:00,76.2,55.7,29.90,NNW,337,2.0,9.0,49,0.00,,CLR,0.00,891.00,VWS V14.01,2013-06-15 18:58:00,
2013-06-15 15:03:00,75.9,56.0,29.90,WNW,296,3.0,8.0,50,0.00,,CLR,0.00,877.00,VWS V14.01,2013-06-15 19:03:00,
2013-06-15 15:08:00,76.4,55.8,29.90,NNW,327,5.0,12.0,49,0.00,,CLR,0.00,872.00,VWS V14.01,2013-06-15 19:08:00,
2013-06-15 15:13:00,75.7,55.8,29.90,NW,312,3.0,10.0,50,0.00,,CLR,0.00,861.00,VWS V14.01,2013-06-15 19:13:00,
2013-06-15 15:18:00,75.6,55.1,29.89,NW,309,9.0,11.0,49,0.00,,CLR,0.00,849.00,VWS V14.01,2013-06-15 19:18:00,
2013-06-15 15:23:00,75.8,55.9,29.90,NW,306,7.0,13.0,50,0.00,,CLR,0.00,835.00,VWS V14.01,2013-06-15 19:23:00,
2013-06-15 15:28:00,76.1,56.1,29.90,NW,304,7.0,10.0,50,0.00,,CLR,0.00,828.00,VWS V14.01,2013-06-15 19:28:00,
2013-06-15 15:33:00,76.8,56.2,29.90,NW,307,4.0,4.0,49,0.00,,CLR,0.00,812.00,VWS V14.01,2013-06-15 19:33:00,
2013-06-15 15:38:00,76.8,53.9,29.90,WNW,295,1.0,10.0,45,0.00,,CLR,0.00,805.00,VWS V14.01,2013-06-15 19:38:00,
2013-06-15 15:43:00,76.6,54.9,29.90,NW,304,10.0,12.0,47,0.00,,CLR,0.00,791.00,VWS V14.01,2013-06-15 19:43:00,
2013-06-15 15:48:00,76.5,53.6,29.90,West,279,6.0,10.0,45,0.00,,CLR,0.00,779.00,VWS V14.01,2013-06-15 19:48:00,
2013-06-15 15:53:00,76.5,54.8,29.90,NW,321,5.0,9.0,47,0.00,,CLR,0.00,773.00,VWS V14.01,2013-06-15 19:53:00,
2013-06-15 15:58:00,76.8,54.5,29.90,NW,304,1.0,9.0,46,0.00,,CLR,0.00,759.00,VWS V14.01,2013-06-15 19:58:00,
2013-06-15 16:03:00,76.8,53.9,29.90,NW,315,3.0,7.0,45,0.00,,CLR,0.00,744.00,VWS V14.01,2013-06-15 20:03:00,
2013-06-15 16:08:00,77.1,53.5,29.90,WNW,294,5.0,12.0,44,0.00,,CLR,0.00,731.00,VWS V14.01,2013-06-15 20:08:00,
2013-06-15 16:13:00,77.3,53.7,29.90,WNW,286,1.0,8.0,44,0.00,,CLR,0.00,719.00,VWS V14.01,2013-06-15 20:13:00,
2013-06-15 16:18:00,77.5,53.9,29.89,WNW,284,3.0,8.0,44,0.00,,CLR,0.00,708.00,VWS V14.01,2013-06-15 20:18:00,
2013-06-15 16:23:00,77.3,53.1,29.89,WNW,285,2.0,8.0,43,0.00,,CLR,0.00,696.00,VWS V14.01,2013-06-15 20:23:00,
2013-06-15 16:28:00,77.7,53.5,29.89,West,264,2.0,4.0,43,0.00,,CLR,0.00,679.00,VWS V14.01,2013-06-15 20:28:00,
2013-06-15 16:33:00,77.6,52.1,29.89,NNW,337,2.0,12.0,41,0.00,,CLR,0.00,670.00,VWS V14.01,2013-06-15 20:33:00,
2013-06-15 16:38:00,77.4,52.5,29.89,NW,315,1.0,6.0,42,0.00,,CLR,0.00,654.00,VWS V14.01,2013-06-15 20:38:00,
2013-06-15 16:43:00,77.5,52.6,29.89,West,279,2.0,10.0,42,0.00,,CLR,0.00,640.00,VWS V14.01,2013-06-15 20:43:00,
2013-06-15 16:48:00,77.4,51.9,29.89,West,280,3.0,8.0,41,0.00,,CLR,0.00,621.00,VWS V14.01,2013-06-15 20:48:00,
2013-06-15 16:53:00,77.3,52.5,29.89,NNW,345,4.0,11.0,42,0.00,,CLR,0.00,606.00,VWS V14.01,2013-06-15 20:53:00,
2013-06-15 16:58:00,77.2,51.7,29.89,NNW,331,5.0,8.0,41,0.00,,CLR,0.00,594.00,VWS V14.01,2013-06-15 20:58:00,
2013-06-15 17:03:00,77.0,52.8,29.89,WNW,296,0.0,5.0,43,0.00,,CLR,0.00,575.00,VWS V14.01,2013-06-15 21:03:00,
2013-06-15 17:08:00,77.1,52.9,29.89,WNW,296,0.0,7.0,43,0.00,,CLR,0.00,557.00,VWS V14.01,2013-06-15 21:08:00,
2013-06-15 17:13:00,77.0,51.5,29.89,WNW,299,1.0,9.0,41,0.00,,CLR,0.00,543.00,VWS V14.01,2013-06-15 21:13:00,
2013-06-15 17:18:00,77.2,51.0,29.89,NW,326,3.0,9.0,40,0.00,,CLR,0.00,527.00,VWS V14.01,2013-06-15 21:18:00,
2013-06-15 17:23:00,77.3,51.8,29.89,NW,306,2.0,6.0,41,0.00,,CLR,0.00,513.00,VWS V14.01,2013-06-15 21:23:00,
2013-06-15 17:28:00,77.1,51.6,29.89,NNW,337,2.0,9.0,41,0.00,,CLR,0.00,497.00,VWS V14.01,2013-06-15 21:28:00,
2013-06-15 17:33:00,77.2,52.4,29.89,WNW,284,0.0,8.0,42,0.00,,CLR,0.00,480.00,VWS V14.01,2013-06-15 21:33:00,
2013-06-15 17:38:00,77.2,51.7,29.89,WNW,290,3.0,8.0,41,0.00,,CLR,0.00,468.00,VWS V14.01,2013-06-15 21:38:00,
2013-06-15 17:43:00,77.0,51.5,29.89,WNW,286,2.0,9.0,41,0.00,,CLR,0.00,452.00,VWS V14.01,2013-06-15 21:43:00,
2013-06-15 17:48:00,76.8,52.0,29.89,NNW,331,4.0,8.0,42,0.00,,CLR,0.00,434.00,VWS V14.01,2013-06-15 21:48:00,
2013-06-15 17:53:00,76.7,51.2,29.89,NW,323,1.0,7.0,41,0.00,,CLR,0.00,413.00,VWS V14.01,2013-06-15 21:53:00,
2013-06-15 17:57:00,76.8,52.0,29.89,WNW,298,1.0,7.0,42,0.00,,CLR,0.00,397.00,VWS V14.01,2013-06-15 21:57:00,
2013-06-15 18:02:00,76.8,52.6,29.89,WNW,302,3.0,6.0,43,0.00,,FEW075,0.00,381.00,VWS V14.01,2013-06-15 22:02:00,
2013-06-15 18:07:00,76.7,52.5,29.89,North,355,1.0,6.0,43,0.00,,FEW075,0.00,366.00,VWS V14.01,2013-06-15 22:07:00,
2013-06-15 18:12:00,76.4,52.9,29.89,WNW,293,0.0,10.0,44,0.00,,FEW075,0.00,348.00,VWS V14.01,2013-06-15 22:12:00,
2013-06-15 18:17:00,76.3,52.2,29.89,NW,304,3.0,9.0,43,0.00,,FEW075,0.00,330.00,VWS V14.01,2013-06-15 22:17:00,
2013-06-15 18:22:00,76.2,52.7,29.89,NW,308,2.0,6.0,44,0.00,,FEW075,0.00,315.00,VWS V14.01,2013-06-15 22:22:00,
2013-06-15 18:27:00,76.2,53.3,29.89,WNW,303,2.0,6.0,45,0.00,,FEW075,0.00,301.00,VWS V14.01,2013-06-15 22:27:00,
2013-06-15 18:32:00,75.9,53.1,29.89,WNW,298,4.0,8.0,45,0.00,,FEW075,0.00,281.00,VWS V14.01,2013-06-15 22:32:00,
2013-06-15 18:37:00,75.7,52.9,29.89,WNW,290,3.0,5.0,45,0.00,,FEW075,0.00,267.00,VWS V14.01,2013-06-15 22:37:00,
2013-06-15 18:42:00,75.7,52.9,29.89,WNW,294,3.0,4.0,45,0.00,,FEW075,0.00,248.00,VWS V14.01,2013-06-15 22:42:00,
2013-06-15 18:47:00,75.6,53.4,29.89,NW,306,2.0,7.0,46,0.00,,FEW075,0.00,230.00,VWS V14.01,2013-06-15 22:47:00,
2013-06-15 18:52:00,75.4,53.2,29.89,WNW,282,4.0,6.0,46,0.00,,FEW075,0.00,213.00,VWS V14.01,2013-06-15 22:52:00,
2013-06-15 18:57:00,75.2,53.6,29.89,West,275,1.0,4.0,47,0.00,,FEW075,0.00,199.00,VWS V14.01,2013-06-15 22:57:00,
2013-06-15 19:02:00,75.1,54.1,29.89,West,279,0.0,1.0,48,0.00,,CLR,0.00,181.00,VWS V14.01,2013-06-15 23:02:00,
2013-06-15 19:07:00,74.7,53.7,29.89,West,281,2.0,7.0,48,0.00,,CLR,0.00,163.00,VWS V14.01,2013-06-15 23:07:00,
2013-06-15 19:12:00,74.4,52.9,29.89,WNW,286,0.0,4.0,47,0.00,,CLR,0.00,148.00,VWS V14.01,2013-06-15 23:12:00,
2013-06-15 19:17:00,74.2,53.3,29.89,WNW,290,0.0,3.0,48,0.00,,CLR,0.00,102.00,VWS V14.01,2013-06-15 23:17:00,
2013-06-15 19:22:00,73.8,52.3,29.89,WNW,290,0.0,4.0,47,0.00,,CLR,0.00,109.00,VWS V14.01,2013-06-15 23:22:00,
2013-06-15 19:27:00,73.5,53.2,29.89,WNW,298,1.0,2.0,49,0.00,,CLR,0.00,95.00,VWS V14.01,2013-06-15 23:27:00,
2013-06-15 19:32:00,73.3,53.6,29.90,WNW,300,0.0,3.0,50,0.00,,CLR,0.00,77.00,VWS V14.01,2013-06-15 23:32:00,
2013-06-15 19:37:00,72.9,53.2,29.89,NW,321,0.0,4.0,50,0.00,,CLR,0.00,69.00,VWS V14.01,2013-06-15 23:37:00,
2013-06-15 19:42:00,72.8,53.1,29.89,NW,315,1.0,3.0,50,0.00,,CLR,0.00,56.00,VWS V14.01,2013-06-15 23:42:00,
2013-06-15 19:47:00,72.5,53.9,29.89,West,259,6.0,8.0,52,0.00,,CLR,0.00,46.00,VWS V14.01,2013-06-15 23:47:00,
2013-06-15 19:52:00,71.9,55.4,29.90,West,275,2.0,6.0,56,0.00,,CLR,0.00,33.00,VWS V14.01,2013-06-15 23:52:00,
2013-06-15 19:57:00,71.3,56.2,29.90,West,262,3.0,10.0,59,0.00,,CLR,0.00,26.00,VWS V14.01,2013-06-15 23:57:00,
2013-06-15 20:02:00,70.7,57.9,29.90,WSW,256,5.0,10.0,64,0.00,,CLR,0.00,19.00,VWS V14.01,2013-06-16 00:02:00,
2013-06-15 20:07:00,69.9,58.5,29.90,WSW,249,4.0,7.0,67,0.00,,CLR,0.00,14.00,VWS V14.01,2013-06-16 00:07:00,
2013-06-15 20:12:00,69.0,58.4,29.90,WNW,286,2.0,9.0,69,0.00,,CLR,0.00,11.00,VWS V14.01,2013-06-16 00:12:00,
2013-06-15 20:17:00,68.3,58.5,29.90,West,272,0.0,8.0,71,0.00,,CLR,0.00,7.00,VWS V14.01,2013-06-16 00:17:00,
2013-06-15 20:22:00,67.6,58.3,29.91,West,265,7.0,9.0,72,0.00,,CLR,0.00,5.00,VWS V14.01,2013-06-16 00:22:00,
2013-06-15 20:27:00,67.3,58.0,29.91,West,260,0.0,9.0,72,0.00,,CLR,0.00,0.00,VWS V14.01,2013-06-16 00:27:00,
2013-06-15 20:32:00,67.0,58.1,29.91,WSW,245,5.0,10.0,73,0.00,,CLR,0.00,0.00,VWS V14.01,2013-06-16 00:32:00,
2013-06-15 20:37:00,66.8,57.9,29.91,SW,236,4.0,7.0,73,0.00,,CLR,0.00,0.00,VWS V14.01,2013-06-16 00:37:00,
2013-06-15 20:42:00,66.7,58.2,29.91,West,263,0.0,9.0,74,0.00,,CLR,0.00,0.00,VWS V14.01,2013-06-16 00:42:00,
2013-06-15 20:47:00,66.6,58.1,29.90,West,268,3.0,10.0,74,0.00,,CLR,0.00,0.00,VWS V14.01,2013-06-16 00:47:00,
2013-06-15 20:52:00,66.5,58.3,29.91,West,268,12.0,12.0,75,0.00,,CLR,0.00,0.00,VWS V14.01,2013-06-16 00:52:00,
2013-06-15 20:57:00,66.4,58.6,29.91,WSW,250,2.0,9.0,76,0.00,,CLR,0.00,0.00,VWS V14.01,2013-06-16 00:57:00,
2013-06-15 21:02:00,66.4,58.6,29.91,West,269,0.0,11.0,76,0.00,,CLR,0.00,0.00,VWS V14.01,2013-06-16 01:02:00,
2013-06-15 21:07:00,66.4,59.0,29.91,WNW,299,3.0,9.0,77,0.00,,CLR,0.00,0.00,VWS V14.01,2013-06-16 01:07:00,
2013-06-15 21:12:00,66.5,59.1,29.92,WNW,283,6.0,11.0,77,0.00,,CLR,0.00,0.00,VWS V14.01,2013-06-16 01:12:00,
2013-06-15 21:17:00,66.4,59.0,29.91,West,264,0.0,9.0,77,0.00,,CLR,0.00,0.00,VWS V14.01,2013-06-16 01:17:00,
2013-06-15 21:22:00,66.2,59.2,29.92,West,276,1.0,12.0,78,0.00,,CLR,0.00,0.00,VWS V14.01,2013-06-16 01:22:00,
2013-06-15 21:27:00,66.1,59.4,29.92,West,271,0.0,9.0,79,0.00,,CLR,0.00,0.00,VWS V14.01,2013-06-16 01:27:00,
2013-06-15 21:32:00,65.9,59.6,29.92,West,265,0.0,6.0,80,0.00,,CLR,0.00,0.00,VWS V14.01,2013-06-16 01:32:00,
2013-06-15 21:37:00,65.9,59.6,29.92,West,267,7.0,9.0,80,0.00,,CLR,0.00,0.00,VWS V14.01,2013-06-16 01:37:00,
2013-06-15 21:42:00,65.9,59.6,29.92,WSW,246,4.0,6.0,80,0.00,,CLR,0.00,0.00,VWS V14.01,2013-06-16 01:42:00,
2013-06-15 21:47:00,65.8,59.8,29.93,West,260,0.0,6.0,81,0.00,,CLR,0.00,0.00,VWS V14.01,2013-06-16 01:47:00,
2013-06-15 21:52:00,65.6,60.0,29.93,WSW,248,0.0,1.0,82,0.00,,CLR,0.00,0.00,VWS V14.01,2013-06-16 01:52:00,
2013-06-15 21:57:00,65.5,60.2,29.93,WSW,252,5.0,8.0,83,0.00,,CLR,0.00,0.00,VWS V14.01,2013-06-16 01:57:00,
2013-06-15 22:02:00,65.5,60.2,29.93,WSW,254,2.0,11.0,83,0.00,,CLR,0.00,0.00,VWS V14.01,2013-06-16 02:02:00,
2013-06-15 22:07:00,65.6,60.3,29.93,WSW,250,8.0,8.0,83,0.00,,CLR,0.00,0.00,VWS V14.01,2013-06-16 02:07:00,
2013-06-15 22:12:00,65.6,60.3,29.93,WSW,248,1.0,7.0,83,0.00,,CLR,0.00,0.00,VWS V14.01,2013-06-16 02:12:00,
2013-06-15 22:17:00,65.5,60.2,29.93,SW,228,0.0,2.0,83,0.00,,CLR,0.00,0.00,VWS V14.01,2013-06-16 02:17:00,
2013-06-15 22:22:00,65.3,60.0,29.93,WSW,255,0.0,7.0,83,0.00,,CLR,0.00,0.00,VWS V14.01,2013-06-16 02:22:00,
2013-06-15 22:27:00,65.2,60.2,29.92,WSW,252,5.0,7.0,84,0.00,,CLR,0.00,0.00,VWS V14.01,2013-06-16 02:27:00,
2013-06-15 22:32:00,65.2,59.9,29.92,West,273,6.0,8.0,83,0.00,,CLR,0.00,0.00,VWS V14.01,2013-06-16 02:32:00,
2013-06-15 22:37:00,65.3,60.0,29.92,WNW,301,3.0,10.0,83,0.00,,CLR,0.00,0.00,VWS V14.01,2013-06-16 02:37:00,
2013-06-15 22:42:00,65.3,60.3,29.92,WSW,246,0.0,4.0,84,0.00,,CLR,0.00,0.00,VWS V14.01,2013-06-16 02:42:00,
2013-06-15 22:47:00,65.1,60.2,29.93,West,266,0.0,9.0,84,0.00,,CLR,0.00,0.00,VWS V14.01,2013-06-16 02:47:00,
2013-06-15 22:52:00,65.0,60.4,29.93,SW,229,4.0,8.0,85,0.00,,CLR,0.00,0.00,VWS V14.01,2013-06-16 02:52:00,
2013-06-15 22:57:00,64.8,60.5,29.93,West,267,0.0,4.0,86,0.00,,CLR,0.00,0.00,VWS V14.01,2013-06-16 02:57:00,
2013-06-15 23:02:00,64.6,60.3,29.93,West,273,6.0,9.0,86,0.00,,CLR,0.00,0.00,VWS V14.01,2013-06-16 03:02:00,
2013-06-15 23:07:00,64.6,60.7,29.92,WSW,254,3.0,9.0,87,0.00,,CLR,0.00,0.00,VWS V14.01,2013-06-16 03:07:00,
2013-06-15 23:12:00,64.5,60.5,29.92,WSW,253,2.0,5.0,87,0.00,,CLR,0.00,0.00,VWS V14.01,2013-06-16 03:12:00,
2013-06-15 23:17:00,64.4,60.5,29.92,WSW,257,0.0,9.0,87,0.00,,CLR,0.00,0.00,VWS V14.01,2013-06-16 03:17:00,
2013-06-15 23:22:00,64.3,60.7,29.93,West,264,3.0,7.0,88,0.00,,CLR,0.00,0.00,VWS V14.01,2013-06-16 03:22:00,
2013-06-15 23:27:00,64.2,60.6,29.93,West,265,0.0,10.0,88,0.00,,CLR,0.00,0.00,VWS V14.01,2013-06-16 03:27:00,
2013-06-15 23:32:00,64.1,60.5,29.93,WSW,255,0.0,9.0,88,0.00,,CLR,0.00,0.00,VWS V14.01,2013-06-16 03:32:00,
2013-06-15 23:37:00,64.1,60.5,29.93,West,280,7.0,7.0,88,0.00,,CLR,0.00,0.00,VWS V14.01,2013-06-16 03:37:00,
2013-06-15 23:42:00,64.2,60.6,29.93,West,263,0.0,8.0,88,0.00,,CLR,0.00,0.00,VWS V14.01,2013-06-16 03:42:00,
2013-06-15 23:47:00,64.1,60.5,29.93,West,263,2.0,9.0,88,0.00,,CLR,0.00,0.00,VWS V14.01,2013-06-16 03:47:00,
2013-06-15 23:52:00,64.1,60.5,29.93,West,267,0.0,0.0,88,0.00,,CLR,0.00,0.00,VWS V14.01,2013-06-16 03:52:00,
2013-06-15 23:57:00,64.0,60.4,29.93,WNW,288,2.0,5.0,88,0.00,,CLR,0.00,0.00,VWS V14.01,2013-06-16 03:57:00,